Terminal Aerodrome Forecast
Issued by NWS

Current Version | Previous Version | Graphics & Text | Print | Product List | Glossary On
Versions: 1 2 3 4 5 6 7 8 9 10 11 12 13 14 15 16 17 18
000
FTUS41 KPBZ 240200 AAA
TAFMGW
TAF AMD
KMGW 240205Z 2402/2424 34009KT P6SM BKN025
      TEMPO 2402/2404 P6SM BKN015
     FM240800 34006KT 4SM BR BKN015
     FM241600 36008KT P6SM BKN035=

USA.gov is the U.S. government's official web portal to all federal, state and local government web resources and services.